Time;durP1;ratioP1;P1;durP2;ratioP2;P2;SDS_P1;SDS_P2;PMS_P1;PMS_P2;Temp;Humidity;BMP_temperature;BMP_pressure;BME280_temperature;BME280_humidity;BME280_pressure;Samples;Min_cycle;Max_cycle;Signal;HPM_P1;HPM_P2
2021/06/11 00:01:43;;;;;;;9.63;8.63;;;17.90;99.90;;;;;;5118054;28;20201;-67
2021/06/11 00:04:08;;;;;;;11.87;9.87;;;17.90;99.90;;;;;;5116893;28;20288;-68
2021/06/11 00:06:36;;;;;;;11.37;9.23;;;18.00;99.90;;;;;;5116327;28;20303;-67
2021/06/11 00:09:03;;;;;;;11.33;10.13;;;17.90;99.90;;;;;;5117678;28;20164;-67
2021/06/11 00:11:28;;;;;;;11.40;8.10;;;17.80;99.90;;;;;;5116359;28;20455;-67
2021/06/11 00:13:54;;;;;;;13.70;9.67;;;17.60;99.90;;;;;;5117616;28;20396;-67
2021/06/11 00:16:20;;;;;;;10.33;8.60;;;17.60;99.90;;;;;;5117640;28;20200;-67
2021/06/11 00:18:46;;;;;;;9.70;8.77;;;17.70;99.90;;;;;;5117345;28;20233;-66
2021/06/11 00:21:11;;;;;;;10.07;8.00;;;17.60;99.90;;;;;;5117454;28;20530;-68
2021/06/11 00:23:37;;;;;;;9.87;8.87;;;17.60;99.90;;;;;;5117513;28;20611;-68
2021/06/11 00:26:03;;;;;;;8.60;7.80;;;17.50;99.90;;;;;;5117334;28;20676;-66
2021/06/11 00:28:28;;;;;;;9.97;7.80;;;17.60;99.90;;;;;;5117362;28;20171;-69
2021/06/11 00:30:54;;;;;;;9.13;8.13;;;17.50;99.90;;;;;;5115889;28;20196;-68
2021/06/11 00:33:19;;;;;;;9.30;7.60;;;17.50;99.90;;;;;;5117277;28;20164;-68
2021/06/11 00:35:45;;;;;;;9.57;8.57;;;17.50;99.90;;;;;;5117225;28;20191;-67
2021/06/11 00:38:10;;;;;;;11.40;8.80;;;17.40;99.90;;;;;;5117659;28;20667;-68
2021/06/11 00:40:37;;;;;;;9.47;8.20;;;17.40;99.90;;;;;;5117124;28;20198;-67
2021/06/11 00:43:03;;;;;;;9.90;7.93;;;17.40;99.90;;;;;;5117561;28;20204;-67
2021/06/11 00:45:28;;;;;;;10.47;9.40;;;17.40;99.90;;;;;;5116981;28;20419;-66
2021/06/11 00:47:55;;;;;;;9.90;8.70;;;17.40;99.90;;;;;;5117489;28;20412;-67
2021/06/11 00:50:25;;;;;;;10.00;9.00;;;17.40;99.90;;;;;;5116884;28;20728;-66
2021/06/11 00:52:53;;;;;;;10.80;8.53;;;17.40;99.90;;;;;;5117360;28;20503;-68
2021/06/11 00:55:19;;;;;;;8.97;8.10;;;17.40;99.90;;;;;;5116845;28;20430;-67
2021/06/11 00:57:45;;;;;;;9.63;8.70;;;17.40;99.90;;;;;;5116525;28;20448;-67
2021/06/11 01:00:11;;;;;;;12.37;8.40;;;17.50;99.90;;;;;;5116876;28;20803;-69
2021/06/11 01:02:37;;;;;;;11.83;8.90;;;17.40;99.90;;;;;;5115579;28;20292;-68
2021/06/11 01:05:03;;;;;;;10.70;8.67;;;17.40;99.90;;;;;;5115292;28;20412;-67
2021/06/11 01:07:29;;;;;;;9.60;8.60;;;17.40;99.90;;;;;;5117173;28;20175;-69
2021/06/11 01:09:55;;;;;;;9.73;8.53;;;17.50;99.90;;;;;;5116425;28;20515;-68
2021/06/11 01:12:22;;;;;;;9.40;8.50;;;17.50;99.90;;;;;;5116917;28;20452;-68
2021/06/11 01:14:47;;;;;;;9.13;7.60;;;17.60;99.90;;;;;;5116474;28;20400;-68
2021/06/11 01:17:13;;;;;;;12.13;9.17;;;17.60;99.90;;;;;;5115276;28;20450;-66
2021/06/11 01:19:46;;;;;;;9.97;8.73;;;17.60;99.90;;;;;;5116330;28;20314;-66
2021/06/11 01:22:32;;;;;;;9.90;8.67;;;17.80;99.90;;;;;;5116662;28;20210;-66
2021/06/11 01:25:12;;;;;;;10.83;8.77;;;17.90;99.90;;;;;;5116314;28;20388;-67
2021/06/11 01:27:44;;;;;;;8.60;7.70;;;17.90;99.90;;;;;;5116706;28;20423;-66
2021/06/11 01:30:19;;;;;;;10.57;9.53;;;17.90;99.90;;;;;;5116115;28;20423;-68
2021/06/11 01:32:47;;;;;;;11.40;9.40;;;18.00;99.90;;;;;;5116701;28;20568;-68
2021/06/11 01:35:20;;;;;;;10.50;8.50;;;17.90;99.90;;;;;;5114781;28;20428;-68
2021/06/11 01:37:52;;;;;;;10.30;9.30;;;18.00;99.90;;;;;;5116488;28;20412;-68
2021/06/11 01:40:17;;;;;;;10.10;9.00;;;18.00;99.90;;;;;;5115992;28;20473;-68
2021/06/11 01:42:47;;;;;;;10.20;9.20;;;18.00;99.90;;;;;;5116290;28;20980;-66
2021/06/11 01:45:14;;;;;;;10.10;8.90;;;18.00;99.90;;;;;;5115774;28;20192;-67
2021/06/11 01:47:45;;;;;;;10.13;9.13;;;18.10;99.90;;;;;;5115785;28;20427;-67
2021/06/11 01:50:15;;;;;;;10.03;8.90;;;18.10;99.90;;;;;;5115753;28;20421;-67
2021/06/11 01:52:41;;;;;;;10.57;9.57;;;18.10;99.90;;;;;;5116224;28;20767;-67
2021/06/11 01:55:09;;;;;;;12.90;10.63;;;18.10;99.90;;;;;;5115629;28;20432;-67
2021/06/11 01:57:35;;;;;;;10.33;9.43;;;18.10;99.90;;;;;;5116159;28;20431;-67
2021/06/11 02:00:03;;;;;;;10.27;9.30;;;18.10;99.90;;;;;;5115524;28;20827;-68
2021/06/11 02:02:29;;;;;;;11.07;9.97;;;18.10;99.90;;;;;;5115309;28;20846;-68
2021/06/11 02:04:56;;;;;;;10.67;9.60;;;18.00;99.90;;;;;;5114101;28;20499;-68
2021/06/11 02:07:23;;;;;;;12.37;9.60;;;18.00;99.90;;;;;;5115841;28;20456;-67
2021/06/11 02:09:51;;;;;;;11.77;10.57;;;18.00;99.90;;;;;;5114288;28;20731;-67
2021/06/11 02:12:17;;;;;;;16.00;10.27;;;18.00;99.90;;;;;;5115741;28;20523;-67
2021/06/11 02:14:45;;;;;;;11.93;10.17;;;18.00;99.90;;;;;;5115321;28;20407;-68
2021/06/11 02:17:11;;;;;;;11.37;10.20;;;18.00;99.90;;;;;;5115473;28;20443;-67
2021/06/11 02:19:39;;;;;;;11.10;10.10;;;18.00;99.90;;;;;;5113860;28;20499;-67
2021/06/11 02:22:05;;;;;;;10.67;9.70;;;18.00;99.90;;;;;;5115299;28;20887;-67
2021/06/11 02:24:33;;;;;;;11.20;10.10;;;18.00;99.90;;;;;;5115122;28;20490;-67
2021/06/11 02:27:01;;;;;;;11.60;10.37;;;18.10;99.90;;;;;;5115286;28;20797;-68
2021/06/11 02:29:26;;;;;;;11.40;10.30;;;18.10;99.90;;;;;;5114981;28;20405;-69
2021/06/11 02:31:52;;;;;;;11.37;10.17;;;18.00;99.90;;;;;;5113706;28;20467;-68
2021/06/11 02:34:17;;;;;;;10.27;8.90;;;18.00;99.90;;;;;;5113711;28;20175;-68
2021/06/11 02:36:43;;;;;;;11.00;10.00;;;18.00;99.90;;;;;;5115059;28;20218;-68
2021/06/11 02:39:09;;;;;;;11.63;9.90;;;17.90;99.90;;;;;;5114835;28;20168;-68
2021/06/11 02:41:45;;;;;;;10.30;9.33;;;17.80;99.90;;;;;;5114882;28;20195;-68
2021/06/11 02:44:12;;;;;;;11.57;10.37;;;17.80;99.90;;;;;;5113422;28;20203;-68
2021/06/11 02:47:22;;;;;;;11.47;10.37;;;17.80;99.90;;;;;;5114981;28;20443;-67
2021/06/11 02:50:10;;;;;;;11.80;10.23;;;18.00;99.90;;;;;;5108061;28;20412;-67
2021/06/11 02:52:54;;;;;;;11.47;10.37;;;18.00;99.90;;;;;;5114917;28;20436;-68
2021/06/11 02:55:21;;;;;;;10.60;9.60;;;18.00;99.90;;;;;;5114573;28;20427;-68
2021/06/11 02:57:52;;;;;;;10.50;9.40;;;18.00;99.90;;;;;;5113301;28;20487;-68
2021/06/11 03:00:19;;;;;;;11.20;10.00;;;18.10;99.90;;;;;;5114607;28;20431;-67
2021/06/11 03:02:51;;;;;;;11.67;10.00;;;18.10;99.90;;;;;;5114748;28;20468;-67
2021/06/11 03:05:19;;;;;;;11.40;10.20;;;18.10;99.90;;;;;;5114441;28;20420;-68
2021/06/11 03:07:52;;;;;;;11.00;9.67;;;18.00;99.90;;;;;;5114273;28;20942;-69
2021/06/11 03:10:23;;;;;;;9.87;8.93;;;18.10;99.90;;;;;;5113071;28;20439;-67
2021/06/11 03:12:49;;;;;;;9.67;8.67;;;18.20;99.90;;;;;;5114665;28;20412;-68
2021/06/11 03:15:14;;;;;;;9.30;8.40;;;18.10;99.90;;;;;;5114234;28;20435;-69
2021/06/11 03:17:46;;;;;;;8.93;8.03;;;18.10;99.90;;;;;;5114702;28;20424;-68
2021/06/11 03:20:15;;;;;;;8.77;7.87;;;18.10;99.90;;;;;;5113925;28;20448;-67
2021/06/11 03:22:48;;;;;;;9.23;7.60;;;18.10;99.90;;;;;;5114106;28;20471;-67
2021/06/11 03:25:22;;;;;;;12.33;8.60;;;18.10;99.90;;;;;;5114248;28;20505;-68
2021/06/11 03:27:55;;;;;;;8.30;7.10;;;18.10;99.90;;;;;;5114594;28;20465;-68
2021/06/11 03:30:25;;;;;;;8.07;7.27;;;18.20;99.90;;;;;;5114199;28;20515;-68
2021/06/11 03:33:08;;;;;;;7.60;6.90;;;18.20;99.90;;;;;;5114040;28;20408;-68
2021/06/11 03:35:37;;;;;;;8.10;7.30;;;18.20;99.90;;;;;;5112786;28;20436;-68
2021/06/11 03:38:10;;;;;;;7.17;6.47;;;18.20;99.90;;;;;;5114516;28;20823;-67
2021/06/11 03:40:42;;;;;;;6.83;6.23;;;18.30;99.90;;;;;;5114185;28;20416;-68
2021/06/11 03:43:10;;;;;;;8.53;6.20;;;18.30;99.90;;;;;;5114431;28;20524;-67
2021/06/11 03:45:39;;;;;;;7.03;6.10;;;18.30;99.90;;;;;;5114007;28;20997;-68
2021/06/11 03:48:06;;;;;;;6.57;5.87;;;18.40;99.90;;;;;;5114567;28;20432;-68
2021/06/11 03:50:32;;;;;;;6.73;6.07;;;18.40;99.90;;;;;;5112976;28;20556;-68
2021/06/11 03:53:01;;;;;;;6.70;5.80;;;18.40;99.90;;;;;;5113770;28;20444;-67
2021/06/11 03:55:29;;;;;;;7.20;6.50;;;18.40;99.90;;;;;;5113860;28;20478;-68
2021/06/11 03:58:04;;;;;;;6.80;6.20;;;18.40;99.90;;;;;;5112768;28;20515;-68
2021/06/11 04:00:30;;;;;;;6.33;5.83;;;18.50;99.90;;;;;;5113864;28;21013;-69
2021/06/11 04:02:56;;;;;;;9.83;6.50;;;18.60;99.90;;;;;;5114335;28;20891;-67
2021/06/11 04:05:22;;;;;;;6.07;5.57;;;18.60;99.90;;;;;;5113718;28;20781;-68
2021/06/11 04:07:57;;;;;;;6.03;5.00;;;18.60;99.90;;;;;;5114251;28;20413;-68
2021/06/11 04:10:45;;;;;;;5.97;5.47;;;18.60;99.90;;;;;;5113738;28;20778;-67
2021/06/11 04:13:38;;;;;;;7.40;5.60;;;18.70;99.90;;;;;;5112312;28;20427;-68
2021/06/11 04:16:08;;;;;;;5.43;4.93;;;18.80;99.90;;;;;;5112066;28;20975;-67
2021/06/11 04:18:36;;;;;;;5.17;4.67;;;18.90;99.90;;;;;;5113518;28;20452;-68
2021/06/11 04:21:03;;;;;;;5.70;4.83;;;18.90;99.90;;;;;;5112314;28;20783;-67
2021/06/11 04:23:34;;;;;;;6.00;5.50;;;18.90;99.90;;;;;;5113611;28;20991;-70
2021/06/11 04:26:01;;;;;;;7.20;5.90;;;19.00;99.90;;;;;;5113507;28;20428;-68
2021/06/11 04:28:31;;;;;;;5.47;4.97;;;19.20;99.90;;;;;;5112256;28;20950;-67
2021/06/11 04:30:58;;;;;;;7.80;5.57;;;19.30;99.90;;;;;;5113418;28;20427;-69
2021/06/11 04:33:26;;;;;;;5.20;4.80;;;19.50;99.90;;;;;;5114768;28;20416;-67
2021/06/11 04:35:52;;;;;;;6.43;5.70;;;19.50;99.90;;;;;;5117013;28;20427;-67
2021/06/11 04:38:18;;;;;;;5.77;4.60;;;19.60;99.90;;;;;;5117206;28;20747;-68
2021/06/11 04:40:44;;;;;;;8.33;5.60;;;19.60;99.90;;;;;;5116974;28;20184;-68
2021/06/11 04:43:11;;;;;;;5.57;5.17;;;19.60;99.90;;;;;;5116637;28;20967;-68
2021/06/11 04:45:36;;;;;;;6.70;5.20;;;19.70;99.90;;;;;;5117017;28;20933;-68
2021/06/11 04:48:03;;;;;;;5.30;4.80;;;19.70;99.90;;;;;;5117458;28;20548;-67
2021/06/11 04:50:29;;;;;;;5.63;5.13;;;19.70;99.90;;;;;;5116826;28;20695;-66
2021/06/11 04:52:55;;;;;;;4.80;4.10;;;19.80;99.90;;;;;;5116658;28;20422;-67
2021/06/11 04:55:21;;;;;;;5.40;4.93;;;19.80;99.90;;;;;;5114990;28;20627;-67
2021/06/11 04:57:47;;;;;;;5.20;4.70;;;19.90;99.90;;;;;;5116575;28;20683;-67
2021/06/11 05:00:14;;;;;;;5.07;4.67;;;20.00;99.90;;;;;;5116702;28;20459;-69
2021/06/11 05:02:39;;;;;;;4.50;4.10;;;20.00;99.90;;;;;;5115499;28;20466;-66
2021/06/11 05:05:05;;;;;;;5.57;5.07;;;20.10;99.90;;;;;;5115356;28;20417;-67
2021/06/11 05:07:31;;;;;;;5.40;4.90;;;20.20;99.90;;;;;;5116903;28;20178;-66
2021/06/11 05:09:57;;;;;;;5.47;4.97;;;20.20;99.90;;;;;;5116514;28;20420;-66
2021/06/11 05:12:22;;;;;;;4.60;4.20;;;20.10;99.90;;;;;;5116873;28;20175;-68
2021/06/11 05:14:48;;;;;;;5.60;4.90;;;20.10;99.90;;;;;;5116504;28;20213;-69
2021/06/11 05:17:13;;;;;;;6.93;5.10;;;20.20;99.90;;;;;;5116879;28;20631;-68
2021/06/11 05:19:40;;;;;;;5.60;4.60;;;20.20;99.90;;;;;;5116302;28;20563;-67
2021/06/11 05:22:05;;;;;;;4.97;4.57;;;20.20;99.90;;;;;;5113941;28;20800;-67
2021/06/11 05:24:31;;;;;;;6.07;4.67;;;20.20;99.90;;;;;;5109808;28;20495;-67
2021/06/11 05:26:57;;;;;;;6.03;5.17;;;20.30;99.90;;;;;;5111933;28;20253;-66
2021/06/11 05:29:23;;;;;;;5.40;4.47;;;20.30;99.90;;;;;;5110499;27;20560;-68
2021/06/11 05:31:48;;;;;;;5.70;4.50;;;20.40;99.90;;;;;;5115484;28;20215;-67
2021/06/11 05:34:14;;;;;;;5.87;5.37;;;20.40;99.90;;;;;;5095852;28;20185;-69
2021/06/11 05:36:39;;;;;;;5.17;4.67;;;20.50;99.90;;;;;;5095638;28;20196;-66
2021/06/11 05:39:05;;;;;;;5.63;5.00;;;20.50;99.90;;;;;;5113319;28;20182;-69
2021/06/11 05:41:32;;;;;;;4.93;4.43;;;20.60;99.90;;;;;;5115872;28;20234;-66
2021/06/11 05:43:58;;;;;;;4.83;4.43;;;20.60;99.90;;;;;;5115452;28;20974;-67
2021/06/11 05:46:24;;;;;;;4.90;4.40;;;20.70;99.90;;;;;;5114248;28;20446;-67
2021/06/11 05:48:49;;;;;;;7.40;4.90;;;20.90;99.90;;;;;;5114748;28;20179;-67
2021/06/11 05:51:15;;;;;;;4.60;4.20;;;21.10;99.90;;;;;;5112361;28;20343;-67
2021/06/11 05:53:41;;;;;;;5.83;4.20;;;21.20;99.90;;;;;;5114568;28;20176;-67
2021/06/11 05:56:07;;;;;;;4.83;4.43;;;21.20;99.90;;;;;;5111021;27;20983;-67
2021/06/11 05:58:34;;;;;;;4.20;3.90;;;21.40;99.90;;;;;;5109007;27;20183;-67
2021/06/11 06:01:00;;;;;;;4.60;3.67;;;21.50;99.90;;;;;;5109731;28;20792;-66
2021/06/11 06:03:25;;;;;;;4.03;3.73;;;21.70;99.90;;;;;;5112210;28;20452;-67
2021/06/11 06:05:51;;;;;;;4.17;3.73;;;21.90;99.90;;;;;;5112367;28;20203;-67
2021/06/11 06:08:17;;;;;;;3.93;3.40;;;21.90;99.90;;;;;;5109836;28;20215;-69
2021/06/11 06:10:43;;;;;;;9.50;4.00;;;22.10;99.90;;;;;;5108652;28;20195;-67
2021/06/11 06:13:09;;;;;;;5.10;3.77;;;22.20;99.90;;;;;;5112456;28;20535;-69
2021/06/11 06:15:35;;;;;;;4.13;3.83;;;22.10;99.90;;;;;;5113783;28;20456;-67
2021/06/11 06:18:01;;;;;;;5.53;3.53;;;22.00;99.90;;;;;;5113199;28;20463;-69
2021/06/11 06:20:27;;;;;;;3.80;3.13;;;22.10;99.90;;;;;;5113133;28;20215;-68
2021/06/11 06:22:52;;;;;;;3.80;3.50;;;22.10;99.90;;;;;;5113567;27;20215;-67
2021/06/11 06:25:18;;;;;;;5.00;3.40;;;22.60;99.90;;;;;;5114422;28;20195;-67
2021/06/11 06:27:44;;;;;;;3.80;3.00;;;23.30;99.90;;;;;;5101645;28;20187;-67
2021/06/11 06:30:12;;;;;;;3.40;3.10;;;23.70;99.90;;;;;;5111890;28;20211;-68
2021/06/11 06:32:38;;;;;;;3.87;3.50;;;23.70;99.90;;;;;;5109261;28;20757;-66
2021/06/11 06:35:06;;;;;;;3.50;2.70;;;23.90;99.90;;;;;;5111508;28;20515;-67
2021/06/11 06:37:31;;;;;;;3.83;3.57;;;23.80;99.90;;;;;;5103330;28;20519;-67
2021/06/11 06:39:57;;;;;;;3.40;2.80;;;24.00;99.90;;;;;;5101183;28;20516;-67
2021/06/11 06:42:23;;;;;;;3.53;3.23;;;24.10;99.90;;;;;;5109523;28;20519;-67
2021/06/11 06:44:48;;;;;;;3.47;3.17;;;24.30;99.90;;;;;;5110791;28;20668;-68
2021/06/11 06:47:14;;;;;;;3.50;3.20;;;24.40;99.90;;;;;;5106653;28;20267;-69
2021/06/11 06:49:40;;;;;;;3.70;3.40;;;24.60;99.90;;;;;;5111374;28;20262;-67
2021/06/11 06:52:06;;;;;;;5.10;3.57;;;24.60;99.90;;;;;;5108280;28;20204;-66
2021/06/11 06:54:33;;;;;;;3.47;3.17;;;24.50;99.90;;;;;;5111831;28;20173;-68
2021/06/11 06:56:59;;;;;;;3.70;3.40;;;24.40;99.90;;;;;;5109813;28;20444;-68
2021/06/11 06:59:24;;;;;;;3.50;3.27;;;24.30;99.90;;;;;;5110444;28;20422;-68
2021/06/11 07:01:56;;;;;;;3.90;3.20;;;24.40;99.90;;;;;;5108516;27;20452;-67
2021/06/11 07:04:23;;;;;;;3.23;2.93;;;24.40;99.90;;;;;;5113384;28;20681;-69
2021/06/11 07:06:49;;;;;;;3.70;3.20;;;24.30;99.90;;;;;;5116390;27;20476;-68
2021/06/11 07:09:17;;;;;;;4.10;2.97;;;23.50;99.90;;;;;;5108756;28;20515;-69
2021/06/11 07:11:43;;;;;;;4.30;3.70;;;23.40;99.90;;;;;;5109747;28;20549;-67
2021/06/11 07:14:09;;;;;;;3.67;3.37;;;24.10;99.90;;;;;;5113642;28;20495;-67
2021/06/11 07:16:34;;;;;;;5.03;3.13;;;24.20;99.90;;;;;;5108310;28;20547;-67
2021/06/11 07:19:00;;;;;;;3.40;2.97;;;24.40;99.90;;;;;;5108728;28;20231;-66
2021/06/11 07:21:26;;;;;;;7.63;3.77;;;24.60;99.90;;;;;;5110549;28;20218;-68
2021/06/11 07:23:51;;;;;;;4.10;3.80;;;24.30;99.90;;;;;;5109782;28;20203;-67
2021/06/11 07:26:17;;;;;;;6.20;4.00;;;23.80;99.90;;;;;;5107072;28;20474;-68
2021/06/11 07:28:43;;;;;;;3.77;3.47;;;24.20;99.90;;;;;;5109440;28;20184;-68
2021/06/11 07:31:08;;;;;;;4.97;3.67;;;24.60;99.90;;;;;;5109652;28;20557;-67
2021/06/11 07:33:34;;;;;;;4.60;3.90;;;24.80;99.90;;;;;;5108529;28;20241;-68
2021/06/11 07:36:02;;;;;;;3.90;3.60;;;24.90;99.90;;;;;;5110717;28;20210;-68
2021/06/11 07:38:27;;;;;;;3.47;3.20;;;24.50;99.90;;;;;;5103192;28;20232;-69
2021/06/11 07:40:53;;;;;;;4.27;3.87;;;24.90;99.90;;;;;;5110655;28;20441;-68
2021/06/11 07:43:20;;;;;;;3.80;3.50;;;25.20;99.90;;;;;;5110038;28;20751;-69
2021/06/11 07:45:47;;;;;;;3.90;3.60;;;25.10;99.90;;;;;;5108252;28;20447;-67
2021/06/11 07:48:12;;;;;;;4.83;4.40;;;25.10;99.90;;;;;;5110050;28;20421;-68
2021/06/11 07:50:38;;;;;;;4.67;4.27;;;25.30;99.90;;;;;;5109297;28;20514;-67
2021/06/11 07:53:04;;;;;;;3.57;3.30;;;25.40;99.90;;;;;;5105341;28;20181;-68
2021/06/11 07:55:29;;;;;;;4.50;4.13;;;25.50;99.90;;;;;;5110079;28;20441;-69
2021/06/11 07:57:55;;;;;;;4.43;4.10;;;25.50;99.90;;;;;;5112754;28;20273;-68
2021/06/11 08:00:21;;;;;;;5.63;5.10;;;25.60;99.90;;;;;;5109966;28;20208;-67
2021/06/11 08:02:46;;;;;;;4.60;4.20;;;25.60;99.90;;;;;;5110761;28;20557;-68
2021/06/11 08:05:12;;;;;;;10.70;4.43;;;25.70;99.90;;;;;;5109534;28;20211;-69
2021/06/11 08:07:38;;;;;;;7.53;4.57;;;25.80;99.90;;;;;;5112424;28;20179;-67
2021/06/11 08:10:07;;;;;;;7.13;5.00;;;26.00;99.90;;;;;;5115954;28;20184;-68
2021/06/11 08:12:33;;;;;;;5.40;5.00;;;25.90;99.90;;;;;;5106676;28;20185;-69
2021/06/11 08:14:59;;;;;;;5.70;5.20;;;25.60;99.90;;;;;;5111170;27;20446;-68
2021/06/11 08:17:25;;;;;;;5.30;4.90;;;25.60;99.90;;;;;;5113844;28;20538;-68
2021/06/11 08:19:51;;;;;;;6.27;5.73;;;25.70;99.90;;;;;;5102916;28;20237;-69
2021/06/11 08:22:18;;;;;;;6.83;5.17;;;25.70;99.90;;;;;;5113817;28;20792;-68
2021/06/11 08:24:43;;;;;;;6.00;5.10;;;25.80;99.90;;;;;;5109534;28;20418;-68
2021/06/11 08:27:09;;;;;;;5.87;5.33;;;25.80;99.90;;;;;;5115542;27;20811;-69
2021/06/11 08:29:35;;;;;;;4.80;4.40;;;26.00;99.90;;;;;;5112383;28;20178;-69
2021/06/11 08:32:00;;;;;;;8.83;5.70;;;25.90;99.90;;;;;;5110618;28;20208;-69
2021/06/11 08:34:28;;;;;;;6.33;5.73;;;25.80;99.90;;;;;;5106750;28;20496;-68
2021/06/11 08:36:54;;;;;;;7.33;5.40;;;25.80;99.90;;;;;;5107225;28;20210;-69
2021/06/11 08:39:19;;;;;;;5.87;5.00;;;25.90;99.90;;;;;;5107548;27;20422;-68
2021/06/11 08:41:45;;;;;;;6.73;6.13;;;25.90;99.90;;;;;;5104596;27;20466;-67
2021/06/11 08:44:12;;;;;;;6.63;5.93;;;25.80;99.90;;;;;;5109576;28;20211;-69
2021/06/11 08:46:39;;;;;;;6.83;6.23;;;25.90;99.90;;;;;;5110700;28;20218;-68
2021/06/11 08:49:05;;;;;;;7.80;6.40;;;25.80;99.90;;;;;;5111077;28;20414;-68
2021/06/11 08:51:31;;;;;;;6.40;5.77;;;25.90;99.90;;;;;;5114456;28;20478;-69
2021/06/11 08:53:57;;;;;;;5.93;5.43;;;26.00;99.90;;;;;;5111352;27;20209;-68
2021/06/11 08:56:23;;;;;;;6.60;5.93;;;26.00;99.90;;;;;;5115303;28;20551;-67
2021/06/11 08:58:50;;;;;;;6.40;5.80;;;26.00;99.90;;;;;;5115451;28;20493;-69
2021/06/11 09:01:15;;;;;;;6.17;5.57;;;26.00;99.90;;;;;;5110104;27;20446;-68
2021/06/11 09:03:49;;;;;;;8.23;5.93;;;26.00;99.90;;;;;;5113383;28;20446;-69
2021/06/11 09:06:16;;;;;;;5.47;5.07;;;26.20;99.90;;;;;;5113941;27;20203;-70
2021/06/11 09:09:01;;;;;;;5.37;4.97;;;26.30;99.90;;;;;;5113968;28;20403;-69
2021/06/11 09:11:32;;;;;;;5.53;5.03;;;26.30;99.90;;;;;;5114697;28;20437;-68
2021/06/11 09:14:11;;;;;;;5.67;5.17;;;26.40;99.90;;;;;;5114388;27;20412;-68
2021/06/11 09:16:48;;;;;;;5.53;5.07;;;26.50;99.90;;;;;;5109159;28;20454;-67
2021/06/11 09:19:20;;;;;;;5.00;4.60;;;26.60;99.90;;;;;;5110013;27;20465;-69
2021/06/11 09:21:47;;;;;;;6.13;4.77;;;26.80;99.90;;;;;;5109190;28;20455;-68
2021/06/11 09:26:57;;;;;;;5.80;4.67;;;26.50;99.90;;;;;;5113282;27;20479;-69
2021/06/11 09:29:26;;;;;;;4.50;4.10;;;26.80;99.90;;;;;;5113615;28;20419;-69
2021/06/11 09:31:52;;;;;;;24.17;21.70;;;26.80;99.90;;;;;;5115319;28;20443;-67
2021/06/11 09:34:26;;;;;;;4.93;4.53;;;26.80;99.90;;;;;;5115104;27;20412;-68
2021/06/11 09:37:07;;;;;;;3.93;3.53;;;26.70;99.90;;;;;;5113409;27;20452;-69
2021/06/11 09:39:43;;;;;;;3.90;3.60;;;26.90;99.90;;;;;;5114643;28;20913;-69
2021/06/11 09:42:10;;;;;;;4.27;3.90;;;27.10;99.60;;;;;;5112949;28;20487;-69
2021/06/11 09:44:36;;;;;;;6.17;4.00;;;27.10;99.90;;;;;;5113394;27;20828;-68
2021/06/11 09:47:02;;;;;;;3.83;3.53;;;27.00;99.90;;;;;;5113561;28;20870;-67
2021/06/11 09:49:45;;;;;;;3.93;3.60;;;26.30;99.20;;;;;;5109947;27;20515;-68
2021/06/11 09:52:11;;;;;;;5.67;5.07;;;26.70;99.90;;;;;;5113397;27;20495;-69
2021/06/11 09:54:37;;;;;;;5.30;4.80;;;26.70;99.90;;;;;;5111828;28;20434;-68
2021/06/11 09:57:24;;;;;;;10.87;9.70;;;26.90;99.90;;;;;;5110830;28;20451;-69
2021/06/11 09:59:52;;;;;;;5.10;4.70;;;27.00;99.90;;;;;;5112536;28;20833;-67
2021/06/11 10:02:20;;;;;;;5.50;5.00;;;26.90;99.90;;;;;;5107155;28;20980;-67
2021/06/11 10:04:47;;;;;;;4.80;4.40;;;27.10;99.90;;;;;;5109051;28;20427;-69
2021/06/11 10:07:13;;;;;;;8.60;4.67;;;26.90;99.90;;;;;;5098309;28;20452;-67
2021/06/11 10:09:40;;;;;;;5.10;4.70;;;27.00;99.90;;;;;;5104560;28;20412;-68
2021/06/11 10:12:07;;;;;;;4.90;4.30;;;27.00;99.90;;;;;;5108728;28;20435;-68
2021/06/11 10:14:33;;;;;;;5.53;5.00;;;27.00;99.90;;;;;;5106966;28;20442;-68
2021/06/11 10:16:59;;;;;;;6.40;4.53;;;26.90;99.90;;;;;;5108128;27;20447;-68
2021/06/11 10:19:26;;;;;;;5.40;4.90;;;26.90;99.90;;;;;;5107721;28;21024;-69
2021/06/11 10:21:52;;;;;;;4.80;4.40;;;26.90;99.90;;;;;;5108584;28;20207;-69
2021/06/11 10:24:21;;;;;;;4.83;4.50;;;26.90;99.90;;;;;;5104052;28;20516;-67
2021/06/11 10:26:48;;;;;;;4.43;4.03;;;27.00;99.90;;;;;;5104440;28;20520;-68
2021/06/11 10:29:34;;;;;;;4.53;4.13;;;27.20;99.90;;;;;;5061043;28;20455;-68
2021/06/11 10:32:01;;;;;;;5.17;4.47;;;27.10;99.80;;;;;;5114469;28;20461;-68
2021/06/11 10:34:50;;;;;;;8.20;4.53;;;27.00;99.90;;;;;;5111397;28;20416;-69
2021/06/11 10:37:35;;;;;;;4.63;4.27;;;27.30;99.90;;;;;;5111322;28;20444;-67
2021/06/11 10:40:23;;;;;;;6.20;4.30;;;27.70;99.90;;;;;;5114398;28;20804;-68
2021/06/11 10:42:50;;;;;;;4.63;4.07;;;27.70;98.60;;;;;;5110210;28;20839;-67
2021/06/11 10:45:44;;;;;;;4.40;4.00;;;27.60;99.60;;;;;;5094309;28;20413;-68
2021/06/11 10:48:09;;;;;;;6.53;4.67;;;27.70;99.50;;;;;;5100040;28;20443;-69
2021/06/11 10:50:37;;;;;;;4.60;4.30;;;27.90;99.10;;;;;;5107688;28;20427;-68
2021/06/11 10:53:10;;;;;;;4.67;4.27;;;27.80;99.10;;;;;;5105516;28;20195;-68
2021/06/11 10:55:44;;;;;;;3.80;3.60;;;27.80;98.70;;;;;;5106718;28;20772;-68
2021/06/11 10:58:09;;;;;;;4.13;3.83;;;27.60;99.30;;;;;;5104670;28;20809;-68
2021/06/11 11:00:36;;;;;;;4.63;3.90;;;27.20;99.00;;;;;;5106350;28;20462;-68
2021/06/11 11:03:04;;;;;;;3.83;3.37;;;27.00;98.30;;;;;;5106419;28;20238;-68
2021/06/11 11:05:35;;;;;;;3.93;3.60;;;26.80;98.10;;;;;;5106953;28;21051;-68
2021/06/11 11:08:05;;;;;;;4.43;4.03;;;27.10;98.40;;;;;;5108630;28;20478;-68
2021/06/11 11:10:34;;;;;;;4.03;3.70;;;27.10;97.30;;;;;;5105114;28;20440;-68
2021/06/11 11:13:06;;;;;;;4.27;3.87;;;27.00;97.70;;;;;;5105270;28;21232;-68
2021/06/11 11:15:38;;;;;;;3.70;3.40;;;27.20;96.40;;;;;;5108913;28;20511;-68
2021/06/11 11:18:11;;;;;;;4.40;3.90;;;27.10;96.70;;;;;;5110890;28;20914;-67
2021/06/11 11:20:38;;;;;;;4.07;3.63;;;27.30;96.00;;;;;;5108493;28;20468;-68
2021/06/11 11:23:06;;;;;;;4.70;4.30;;;27.50;97.60;;;;;;5111376;28;21024;-68
2021/06/11 11:25:33;;;;;;;3.83;3.53;;;27.80;97.80;;;;;;5126729;27;20436;-68
2021/06/11 11:28:00;;;;;;;3.87;3.57;;;27.60;97.20;;;;;;5110024;28;20523;-68
2021/06/11 11:30:27;;;;;;;5.03;4.63;;;27.20;96.40;;;;;;5112195;28;20857;-68
2021/06/11 11:32:58;;;;;;;6.13;4.40;;;27.40;97.60;;;;;;5114557;28;20768;-67
2021/06/11 11:35:27;;;;;;;5.00;4.33;;;27.40;98.00;;;;;;5107995;28;20440;-67
2021/06/11 11:37:58;;;;;;;4.13;3.73;;;27.40;98.00;;;;;;5110952;28;20828;-67
2021/06/11 11:40:25;;;;;;;3.90;3.60;;;27.30;97.80;;;;;;5110556;28;20976;-69
2021/06/11 11:42:52;;;;;;;4.67;4.37;;;27.40;97.90;;;;;;5114327;28;20803;-67
2021/06/11 11:45:18;;;;;;;8.73;3.83;;;27.60;98.10;;;;;;5115278;28;20435;-69
2021/06/11 11:47:44;;;;;;;6.83;4.60;;;27.70;98.00;;;;;;5114757;28;20495;-69
2021/06/11 11:50:10;;;;;;;4.00;3.60;;;27.50;98.20;;;;;;5116325;28;20252;-69
2021/06/11 11:52:37;;;;;;;4.03;3.63;;;27.60;98.10;;;;;;5120223;27;20440;-69
2021/06/11 11:55:06;;;;;;;4.70;4.30;;;27.60;98.10;;;;;;5125687;27;20419;-68
2021/06/11 11:57:31;;;;;;;4.60;4.20;;;27.10;98.70;;;;;;5123171;27;20529;-69
2021/06/11 11:59:57;;;;;;;5.30;4.17;;;27.50;98.40;;;;;;5114165;27;20506;-68
2021/06/11 12:02:22;;;;;;;4.10;3.80;;;27.40;98.20;;;;;;5121845;27;20275;-67
2021/06/11 12:04:48;;;;;;;4.10;3.80;;;27.50;98.20;;;;;;5118436;27;20211;-69
2021/06/11 12:07:14;;;;;;;6.43;4.70;;;27.40;98.00;;;;;;5117167;27;20188;-67
2021/06/11 12:09:40;;;;;;;4.20;3.90;;;27.30;97.20;;;;;;5112102;27;20601;-68
2021/06/11 12:12:06;;;;;;;4.33;4.00;;;27.40;97.70;;;;;;5107540;27;20200;-68
2021/06/11 12:14:31;;;;;;;4.50;4.20;;;27.20;96.00;;;;;;5118219;27;20187;-68
2021/06/11 12:16:57;;;;;;;4.97;4.47;;;27.60;97.40;;;;;;5120645;27;20808;-67
2021/06/11 12:19:23;;;;;;;5.47;4.30;;;27.60;97.20;;;;;;5108856;27;20467;-67
2021/06/11 12:21:48;;;;;;;5.00;4.60;;;27.40;97.60;;;;;;5114582;27;20199;-67
2021/06/11 12:24:15;;;;;;;5.07;3.83;;;27.40;97.60;;;;;;5122780;27;20246;-68
2021/06/11 12:26:41;;;;;;;5.97;5.40;;;27.40;96.70;;;;;;5114260;27;20564;-67
2021/06/11 12:29:07;;;;;;;4.50;4.10;;;27.20;97.00;;;;;;5111339;27;20412;-68
2021/06/11 12:31:36;;;;;;;4.00;3.63;;;27.50;96.50;;;;;;5115451;27;20572;-69
2021/06/11 12:34:02;;;;;;;3.90;3.60;;;27.50;96.50;;;;;;5111164;28;20190;-69
2021/06/11 12:36:28;;;;;;;4.40;4.00;;;27.70;96.80;;;;;;5125320;27;20461;-67
2021/06/11 12:38:53;;;;;;;4.50;4.10;;;27.80;96.70;;;;;;5129842;27;20427;-69
2021/06/11 12:41:19;;;;;;;4.10;3.80;;;28.00;96.60;;;;;;5113039;28;20203;-68
2021/06/11 12:46:29;;;;;;;3.90;3.60;;;27.90;96.80;;;;;;5113966;27;20695;-67
2021/06/11 12:48:55;;;;;;;3.90;3.60;;;27.60;95.50;;;;;;5122516;27;21018;-67
2021/06/11 12:51:22;;;;;;;4.40;4.00;;;27.70;96.60;;;;;;5124811;27;20502;-68
2021/06/11 12:53:47;;;;;;;8.53;4.00;;;27.50;97.20;;;;;;5132554;27;20257;-68